sensor_id;sensor_type;location;lat;lon;timestamp;temperature;humidity
17815;DHT22;9031;50.974;11.330;2023-05-29T00:00:42;10.40;99.90
17815;DHT22;9031;50.974;11.330;2023-05-29T00:03:09;10.50;99.90
17815;DHT22;9031;50.974;11.330;2023-05-29T00:05:35;10.30;99.90
17815;DHT22;9031;50.974;11.330;2023-05-29T00:08:01;10.10;99.90
17815;DHT22;9031;50.974;11.330;2023-05-29T00:10:26;10.00;99.90
17815;DHT22;9031;50.974;11.330;2023-05-29T00:12:52;10.00;99.90
17815;DHT22;9031;50.974;11.330;2023-05-29T00:15:17;10.00;99.90
17815;DHT22;9031;50.974;11.330;2023-05-29T00:17:44;10.30;99.90
17815;DHT22;9031;50.974;11.330;2023-05-29T00:20:10;10.40;99.90
17815;DHT22;9031;50.974;11.330;2023-05-29T00:22:37;10.50;99.90
17815;DHT22;9031;50.974;11.330;2023-05-29T00:25:06;10.60;99.90
17815;DHT22;9031;50.974;11.330;2023-05-29T00:27:33;10.60;99.90
17815;DHT22;9031;50.974;11.330;2023-05-29T00:29:59;10.50;99.90
17815;DHT22;9031;50.974;11.330;2023-05-29T00:32:25;10.20;99.90
17815;DHT22;9031;50.974;11.330;2023-05-29T00:34:51;10.20;99.90
17815;DHT22;9031;50.974;11.330;2023-05-29T00:37:17;10.20;99.90
17815;DHT22;9031;50.974;11.330;2023-05-29T00:39:42;10.20;99.90
17815;DHT22;9031;50.974;11.330;2023-05-29T00:42:09;10.30;99.90
17815;DHT22;9031;50.974;11.330;2023-05-29T00:44:34;10.30;99.90
17815;DHT22;9031;50.974;11.330;2023-05-29T00:47:01;10.30;99.90
17815;DHT22;9031;50.974;11.330;2023-05-29T00:49:26;10.10;99.90
17815;DHT22;9031;50.974;11.330;2023-05-29T00:51:53;9.90;99.90
17815;DHT22;9031;50.974;11.330;2023-05-29T00:54:21;9.70;99.90
17815;DHT22;9031;50.974;11.330;2023-05-29T00:56:48;9.60;99.90
17815;DHT22;9031;50.974;11.330;2023-05-29T00:59:14;9.60;99.90
17815;DHT22;9031;50.974;11.330;2023-05-29T01:01:41;9.50;99.90
17815;DHT22;9031;50.974;11.330;2023-05-29T01:04:07;9.50;99.90
17815;DHT22;9031;50.974;11.330;2023-05-29T01:06:35;9.60;99.90
17815;DHT22;9031;50.974;11.330;2023-05-29T01:09:01;9.60;99.90
17815;DHT22;9031;50.974;11.330;2023-05-29T01:11:44;9.40;99.90
17815;DHT22;9031;50.974;11.330;2023-05-29T01:14:19;9.10;99.90
17815;DHT22;9031;50.974;11.330;2023-05-29T01:16:59;9.20;99.90
17815;DHT22;9031;50.974;11.330;2023-05-29T01:24:58;9.40;99.90
17815;DHT22;9031;50.974;11.330;2023-05-29T01:27:28;9.00;99.90
17815;DHT22;9031;50.974;11.330;2023-05-29T01:29:55;8.60;99.90
17815;DHT22;9031;50.974;11.330;2023-05-29T01:32:21;8.50;99.90
17815;DHT22;9031;50.974;11.330;2023-05-29T01:34:47;8.40;99.90
17815;DHT22;9031;50.974;11.330;2023-05-29T01:37:13;8.50;99.90
17815;DHT22;9031;50.974;11.330;2023-05-29T01:39:39;8.50;99.90
17815;DHT22;9031;50.974;11.330;2023-05-29T01:42:04;8.50;99.90
17815;DHT22;9031;50.974;11.330;2023-05-29T01:44:31;8.60;99.90
17815;DHT22;9031;50.974;11.330;2023-05-29T01:46:57;8.50;99.90
17815;DHT22;9031;50.974;11.330;2023-05-29T01:49:23;8.60;99.90
17815;DHT22;9031;50.974;11.330;2023-05-29T01:51:49;8.50;99.90
17815;DHT22;9031;50.974;11.330;2023-05-29T01:54:15;8.40;99.90
17815;DHT22;9031;50.974;11.330;2023-05-29T01:56:41;8.50;99.90
17815;DHT22;9031;50.974;11.330;2023-05-29T01:59:07;8.60;99.90
17815;DHT22;9031;50.974;11.330;2023-05-29T02:01:33;8.50;99.90
17815;DHT22;9031;50.974;11.330;2023-05-29T02:03:59;8.60;99.90
17815;DHT22;9031;50.974;11.330;2023-05-29T02:06:24;8.40;99.90
17815;DHT22;9031;50.974;11.330;2023-05-29T02:08:50;8.10;99.90
17815;DHT22;9031;50.974;11.330;2023-05-29T02:11:15;8.10;99.90
17815;DHT22;9031;50.974;11.330;2023-05-29T02:13:42;8.00;99.90
17815;DHT22;9031;50.974;11.330;2023-05-29T02:16:07;8.20;99.90
17815;DHT22;9031;50.974;11.330;2023-05-29T02:18:33;8.40;99.90
17815;DHT22;9031;50.974;11.330;2023-05-29T02:20:59;8.30;99.90
17815;DHT22;9031;50.974;11.330;2023-05-29T02:23:25;8.30;99.90
17815;DHT22;9031;50.974;11.330;2023-05-29T02:25:51;8.20;99.90
17815;DHT22;9031;50.974;11.330;2023-05-29T02:28:16;8.20;99.90
17815;DHT22;9031;50.974;11.330;2023-05-29T02:30:42;8.10;99.90
17815;DHT22;9031;50.974;11.330;2023-05-29T02:33:07;8.00;99.90
17815;DHT22;9031;50.974;11.330;2023-05-29T02:35:34;7.90;99.90
17815;DHT22;9031;50.974;11.330;2023-05-29T02:37:59;7.90;99.90
17815;DHT22;9031;50.974;11.330;2023-05-29T02:40:25;7.80;99.90
17815;DHT22;9031;50.974;11.330;2023-05-29T02:42:50;7.90;99.90
17815;DHT22;9031;50.974;11.330;2023-05-29T02:45:16;7.90;99.90
17815;DHT22;9031;50.974;11.330;2023-05-29T02:47:42;7.90;99.90
17815;DHT22;9031;50.974;11.330;2023-05-29T02:50:08;7.90;99.90
17815;DHT22;9031;50.974;11.330;2023-05-29T02:52:34;7.90;99.90
17815;DHT22;9031;50.974;11.330;2023-05-29T02:55:00;8.10;99.90
17815;DHT22;9031;50.974;11.330;2023-05-29T02:57:26;8.20;99.90
17815;DHT22;9031;50.974;11.330;2023-05-29T02:59:51;8.40;99.90
17815;DHT22;9031;50.974;11.330;2023-05-29T03:02:17;8.50;99.90
17815;DHT22;9031;50.974;11.330;2023-05-29T03:04:44;8.60;99.90
17815;DHT22;9031;50.974;11.330;2023-05-29T03:07:09;8.80;99.90
17815;DHT22;9031;50.974;11.330;2023-05-29T03:09:35;8.80;99.90
17815;DHT22;9031;50.974;11.330;2023-05-29T03:12:01;8.60;99.90
17815;DHT22;9031;50.974;11.330;2023-05-29T03:14:27;8.50;99.90
17815;DHT22;9031;50.974;11.330;2023-05-29T03:16:53;8.50;99.90
17815;DHT22;9031;50.974;11.330;2023-05-29T03:19:19;8.50;99.90
17815;DHT22;9031;50.974;11.330;2023-05-29T03:21:44;8.50;99.90
17815;DHT22;9031;50.974;11.330;2023-05-29T03:24:10;8.30;99.90
17815;DHT22;9031;50.974;11.330;2023-05-29T03:26:36;8.20;99.90
17815;DHT22;9031;50.974;11.330;2023-05-29T03:29:02;8.10;99.90
17815;DHT22;9031;50.974;11.330;2023-05-29T03:31:27;8.20;99.90
17815;DHT22;9031;50.974;11.330;2023-05-29T03:33:53;8.30;99.90
17815;DHT22;9031;50.974;11.330;2023-05-29T03:36:18;8.30;99.90
17815;DHT22;9031;50.974;11.330;2023-05-29T03:38:44;8.20;99.90
17815;DHT22;9031;50.974;11.330;2023-05-29T03:41:10;8.20;99.90
17815;DHT22;9031;50.974;11.330;2023-05-29T03:43:35;8.30;99.90
17815;DHT22;9031;50.974;11.330;2023-05-29T03:46:01;8.30;99.90
17815;DHT22;9031;50.974;11.330;2023-05-29T03:48:27;8.20;99.90
17815;DHT22;9031;50.974;11.330;2023-05-29T03:50:52;8.20;99.90
17815;DHT22;9031;50.974;11.330;2023-05-29T03:53:18;8.30;99.90
17815;DHT22;9031;50.974;11.330;2023-05-29T03:55:43;7.70;99.90
17815;DHT22;9031;50.974;11.330;2023-05-29T03:58:09;7.60;99.90
17815;DHT22;9031;50.974;11.330;2023-05-29T04:00:37;7.70;99.90
17815;DHT22;9031;50.974;11.330;2023-05-29T04:03:03;7.60;99.90
17815;DHT22;9031;50.974;11.330;2023-05-29T04:05:28;7.90;99.90
17815;DHT22;9031;50.974;11.330;2023-05-29T04:07:54;8.10;99.90
17815;DHT22;9031;50.974;11.330;2023-05-29T04:10:19;8.10;99.90
17815;DHT22;9031;50.974;11.330;2023-05-29T04:12:45;8.20;99.90
17815;DHT22;9031;50.974;11.330;2023-05-29T04:15:10;8.50;99.90
17815;DHT22;9031;50.974;11.330;2023-05-29T04:17:36;8.70;99.90
17815;DHT22;9031;50.974;11.330;2023-05-29T04:20:02;8.60;99.90
17815;DHT22;9031;50.974;11.330;2023-05-29T04:22:36;8.50;99.90
17815;DHT22;9031;50.974;11.330;2023-05-29T04:25:03;8.60;99.90
17815;DHT22;9031;50.974;11.330;2023-05-29T04:27:30;8.30;99.90
17815;DHT22;9031;50.974;11.330;2023-05-29T04:29:57;8.20;99.90
17815;DHT22;9031;50.974;11.330;2023-05-29T04:32:23;8.40;99.90
17815;DHT22;9031;50.974;11.330;2023-05-29T04:34:49;8.60;99.90
17815;DHT22;9031;50.974;11.330;2023-05-29T04:37:14;8.60;99.90
17815;DHT22;9031;50.974;11.330;2023-05-29T04:39:40;8.90;99.90
17815;DHT22;9031;50.974;11.330;2023-05-29T04:42:05;8.80;99.90
17815;DHT22;9031;50.974;11.330;2023-05-29T04:44:32;8.70;99.90
17815;DHT22;9031;50.974;11.330;2023-05-29T04:46:58;9.10;99.90
17815;DHT22;9031;50.974;11.330;2023-05-29T04:49:24;9.40;99.90
17815;DHT22;9031;50.974;11.330;2023-05-29T04:51:49;9.70;99.90
17815;DHT22;9031;50.974;11.330;2023-05-29T04:54:18;9.70;99.90
17815;DHT22;9031;50.974;11.330;2023-05-29T04:56:45;9.90;99.90
17815;DHT22;9031;50.974;11.330;2023-05-29T04:59:11;10.10;99.90
17815;DHT22;9031;50.974;11.330;2023-05-29T05:01:37;10.20;99.90
17815;DHT22;9031;50.974;11.330;2023-05-29T05:04:03;10.40;99.90
17815;DHT22;9031;50.974;11.330;2023-05-29T05:06:29;10.60;99.90
17815;DHT22;9031;50.974;11.330;2023-05-29T05:08:54;10.80;99.90
17815;DHT22;9031;50.974;11.330;2023-05-29T05:11:22;10.90;99.90
17815;DHT22;9031;50.974;11.330;2023-05-29T05:13:48;10.80;99.90
17815;DHT22;9031;50.974;11.330;2023-05-29T05:16:13;11.00;99.90
17815;DHT22;9031;50.974;11.330;2023-05-29T05:18:39;11.20;99.90
17815;DHT22;9031;50.974;11.330;2023-05-29T05:21:05;11.40;99.90
17815;DHT22;9031;50.974;11.330;2023-05-29T05:23:31;11.50;99.90
17815;DHT22;9031;50.974;11.330;2023-05-29T05:25:56;11.70;99.90
17815;DHT22;9031;50.974;11.330;2023-05-29T05:28:22;11.90;99.90
17815;DHT22;9031;50.974;11.330;2023-05-29T05:30:47;12.00;99.90
17815;DHT22;9031;50.974;11.330;2023-05-29T05:33:13;12.20;99.90
17815;DHT22;9031;50.974;11.330;2023-05-29T05:35:38;12.30;99.90
17815;DHT22;9031;50.974;11.330;2023-05-29T05:38:04;12.50;99.90
17815;DHT22;9031;50.974;11.330;2023-05-29T05:40:29;12.60;99.90
17815;DHT22;9031;50.974;11.330;2023-05-29T05:42:55;12.80;99.90
17815;DHT22;9031;50.974;11.330;2023-05-29T05:45:21;13.00;99.90
17815;DHT22;9031;50.974;11.330;2023-05-29T05:47:47;13.20;99.90
17815;DHT22;9031;50.974;11.330;2023-05-29T05:50:12;13.40;99.90
17815;DHT22;9031;50.974;11.330;2023-05-29T05:52:38;13.70;99.90
17815;DHT22;9031;50.974;11.330;2023-05-29T05:55:04;13.80;99.90
17815;DHT22;9031;50.974;11.330;2023-05-29T05:57:29;14.00;99.90
17815;DHT22;9031;50.974;11.330;2023-05-29T05:59:58;14.20;99.90
17815;DHT22;9031;50.974;11.330;2023-05-29T06:02:23;14.40;99.90
17815;DHT22;9031;50.974;11.330;2023-05-29T06:04:49;14.50;99.90
17815;DHT22;9031;50.974;11.330;2023-05-29T06:07:15;14.70;99.90
17815;DHT22;9031;50.974;11.330;2023-05-29T06:09:40;14.80;99.90
17815;DHT22;9031;50.974;11.330;2023-05-29T06:12:07;15.00;99.90
17815;DHT22;9031;50.974;11.330;2023-05-29T06:14:33;15.10;99.90
17815;DHT22;9031;50.974;11.330;2023-05-29T06:17:00;15.30;99.90
17815;DHT22;9031;50.974;11.330;2023-05-29T06:19:26;15.30;99.90
17815;DHT22;9031;50.974;11.330;2023-05-29T06:21:51;15.40;99.90
17815;DHT22;9031;50.974;11.330;2023-05-29T06:24:17;15.60;99.90
17815;DHT22;9031;50.974;11.330;2023-05-29T06:26:42;15.70;99.90
17815;DHT22;9031;50.974;11.330;2023-05-29T06:29:08;15.70;99.90
17815;DHT22;9031;50.974;11.330;2023-05-29T06:31:33;15.80;99.90
17815;DHT22;9031;50.974;11.330;2023-05-29T06:33:59;16.00;99.90
17815;DHT22;9031;50.974;11.330;2023-05-29T06:36:24;16.20;99.90
17815;DHT22;9031;50.974;11.330;2023-05-29T06:38:50;16.30;99.90
17815;DHT22;9031;50.974;11.330;2023-05-29T06:41:16;16.10;99.90
17815;DHT22;9031;50.974;11.330;2023-05-29T06:43:42;16.10;99.90
17815;DHT22;9031;50.974;11.330;2023-05-29T06:46:07;16.20;99.90
17815;DHT22;9031;50.974;11.330;2023-05-29T06:48:34;16.20;99.90
17815;DHT22;9031;50.974;11.330;2023-05-29T06:51:00;16.30;99.90
17815;DHT22;9031;50.974;11.330;2023-05-29T06:53:25;16.60;99.90
17815;DHT22;9031;50.974;11.330;2023-05-29T06:55:52;16.80;99.70
17815;DHT22;9031;50.974;11.330;2023-05-29T06:58:18;16.70;99.60
17815;DHT22;9031;50.974;11.330;2023-05-29T07:00:43;16.70;99.70
17815;DHT22;9031;50.974;11.330;2023-05-29T07:03:09;16.80;99.20
17815;DHT22;9031;50.974;11.330;2023-05-29T07:05:34;16.70;99.50
17815;DHT22;9031;50.974;11.330;2023-05-29T07:08:00;16.80;99.60
17815;DHT22;9031;50.974;11.330;2023-05-29T07:10:25;17.00;99.20
17815;DHT22;9031;50.974;11.330;2023-05-29T07:12:51;17.30;98.70
17815;DHT22;9031;50.974;11.330;2023-05-29T07:15:16;17.40;98.50
17815;DHT22;9031;50.974;11.330;2023-05-29T07:17:42;17.60;97.80
17815;DHT22;9031;50.974;11.330;2023-05-29T07:20:08;17.60;97.80
17815;DHT22;9031;50.974;11.330;2023-05-29T07:22:34;17.60;98.00
17815;DHT22;9031;50.974;11.330;2023-05-29T07:25:00;17.80;97.80
17815;DHT22;9031;50.974;11.330;2023-05-29T07:27:26;18.10;97.30
17815;DHT22;9031;50.974;11.330;2023-05-29T07:29:51;18.30;97.00
17815;DHT22;9031;50.974;11.330;2023-05-29T07:32:17;18.40;96.70
17815;DHT22;9031;50.974;11.330;2023-05-29T07:34:42;18.40;96.60
17815;DHT22;9031;50.974;11.330;2023-05-29T07:37:08;18.40;96.40
17815;DHT22;9031;50.974;11.330;2023-05-29T07:39:34;18.30;96.60
17815;DHT22;9031;50.974;11.330;2023-05-29T07:42:01;18.50;96.40
17815;DHT22;9031;50.974;11.330;2023-05-29T07:44:27;18.70;95.60
17815;DHT22;9031;50.974;11.330;2023-05-29T07:46:52;18.70;95.70
17815;DHT22;9031;50.974;11.330;2023-05-29T07:49:19;18.70;94.50
17815;DHT22;9031;50.974;11.330;2023-05-29T07:51:45;18.90;94.10
17815;DHT22;9031;50.974;11.330;2023-05-29T07:54:10;19.00;94.20
17815;DHT22;9031;50.974;11.330;2023-05-29T07:56:36;19.10;94.30
17815;DHT22;9031;50.974;11.330;2023-05-29T07:59:02;19.00;94.80
17815;DHT22;9031;50.974;11.330;2023-05-29T08:01:28;19.20;93.90
17815;DHT22;9031;50.974;11.330;2023-05-29T08:03:54;18.90;93.80
17815;DHT22;9031;50.974;11.330;2023-05-29T08:06:20;18.90;94.60
17815;DHT22;9031;50.974;11.330;2023-05-29T08:08:46;19.30;93.80
17815;DHT22;9031;50.974;11.330;2023-05-29T08:11:11;19.50;93.10
17815;DHT22;9031;50.974;11.330;2023-05-29T08:13:37;19.60;92.80
17815;DHT22;9031;50.974;11.330;2023-05-29T08:16:03;19.70;92.80
17815;DHT22;9031;50.974;11.330;2023-05-29T08:18:30;19.80;92.50
17815;DHT22;9031;50.974;11.330;2023-05-29T08:20:56;20.10;92.20
17815;DHT22;9031;50.974;11.330;2023-05-29T08:23:22;20.00;92.10
17815;DHT22;9031;50.974;11.330;2023-05-29T08:25:47;20.30;91.80
17815;DHT22;9031;50.974;11.330;2023-05-29T08:28:14;20.30;91.80
17815;DHT22;9031;50.974;11.330;2023-05-29T08:30:40;20.20;92.50
17815;DHT22;9031;50.974;11.330;2023-05-29T08:33:05;20.40;91.20
17815;DHT22;9031;50.974;11.330;2023-05-29T08:35:31;20.40;91.50
17815;DHT22;9031;50.974;11.330;2023-05-29T08:37:56;20.30;91.50
17815;DHT22;9031;50.974;11.330;2023-05-29T08:40:22;20.60;91.30
17815;DHT22;9031;50.974;11.330;2023-05-29T08:42:56;20.90;91.00
17815;DHT22;9031;50.974;11.330;2023-05-29T08:45:24;21.00;90.30
17815;DHT22;9031;50.974;11.330;2023-05-29T08:47:52;21.00;90.20
17815;DHT22;9031;50.974;11.330;2023-05-29T08:50:19;21.20;90.50
17815;DHT22;9031;50.974;11.330;2023-05-29T08:52:46;21.40;89.50
17815;DHT22;9031;50.974;11.330;2023-05-29T08:55:12;21.40;89.60
17815;DHT22;9031;50.974;11.330;2023-05-29T08:57:37;21.30;90.30
17815;DHT22;9031;50.974;11.330;2023-05-29T09:00:05;21.30;89.90
17815;DHT22;9031;50.974;11.330;2023-05-29T09:02:40;21.70;89.70
17815;DHT22;9031;50.974;11.330;2023-05-29T09:05:07;22.10;88.10
17815;DHT22;9031;50.974;11.330;2023-05-29T09:07:33;22.30;87.70
17815;DHT22;9031;50.974;11.330;2023-05-29T09:09:59;22.20;85.60
17815;DHT22;9031;50.974;11.330;2023-05-29T09:12:26;22.60;83.10
17815;DHT22;9031;50.974;11.330;2023-05-29T09:14:51;22.70;83.30
17815;DHT22;9031;50.974;11.330;2023-05-29T09:17:17;22.60;82.10
17815;DHT22;9031;50.974;11.330;2023-05-29T09:19:43;22.90;80.80
17815;DHT22;9031;50.974;11.330;2023-05-29T09:22:12;22.90;81.10
17815;DHT22;9031;50.974;11.330;2023-05-29T09:24:43;23.20;80.00
17815;DHT22;9031;50.974;11.330;2023-05-29T09:27:11;23.40;79.40
17815;DHT22;9031;50.974;11.330;2023-05-29T09:29:41;23.60;78.80
17815;DHT22;9031;50.974;11.330;2023-05-29T09:32:11;23.60;79.40
17815;DHT22;9031;50.974;11.330;2023-05-29T09:34:37;23.90;77.40
17815;DHT22;9031;50.974;11.330;2023-05-29T09:37:04;24.10;78.40
17815;DHT22;9031;50.974;11.330;2023-05-29T09:39:47;23.90;78.70
17815;DHT22;9031;50.974;11.330;2023-05-29T09:42:14;24.20;76.90
17815;DHT22;9031;50.974;11.330;2023-05-29T09:44:40;24.00;77.70
17815;DHT22;9031;50.974;11.330;2023-05-29T09:47:06;24.40;76.70
17815;DHT22;9031;50.974;11.330;2023-05-29T09:49:32;24.80;74.90
17815;DHT22;9031;50.974;11.330;2023-05-29T09:51:58;24.70;73.00
17815;DHT22;9031;50.974;11.330;2023-05-29T09:54:27;24.50;73.90
17815;DHT22;9031;50.974;11.330;2023-05-29T09:56:56;24.80;72.10
17815;DHT22;9031;50.974;11.330;2023-05-29T09:59:23;24.40;71.50
17815;DHT22;9031;50.974;11.330;2023-05-29T10:02:01;24.60;70.50
17815;DHT22;9031;50.974;11.330;2023-05-29T10:04:30;24.40;70.40
17815;DHT22;9031;50.974;11.330;2023-05-29T10:06:56;24.50;70.70
17815;DHT22;9031;50.974;11.330;2023-05-29T10:09:23;24.60;70.60
17815;DHT22;9031;50.974;11.330;2023-05-29T10:11:50;24.60;69.60
17815;DHT22;9031;50.974;11.330;2023-05-29T10:14:19;24.70;70.60
17815;DHT22;9031;50.974;11.330;2023-05-29T10:16:47;25.20;67.90
17815;DHT22;9031;50.974;11.330;2023-05-29T10:19:20;25.50;64.50
17815;DHT22;9031;50.974;11.330;2023-05-29T10:21:47;25.80;64.10
17815;DHT22;9031;50.974;11.330;2023-05-29T10:24:14;25.80;64.40
17815;DHT22;9031;50.974;11.330;2023-05-29T10:26:42;25.80;63.50
17815;DHT22;9031;50.974;11.330;2023-05-29T10:34:29;25.80;64.80
17815;DHT22;9031;50.974;11.330;2023-05-29T10:37:35;25.70;65.10
17815;DHT22;9031;50.974;11.330;2023-05-29T10:40:07;25.30;65.90
17815;DHT22;9031;50.974;11.330;2023-05-29T10:45:07;26.20;61.70
17815;DHT22;9031;50.974;11.330;2023-05-29T10:47:33;27.10;59.50
17815;DHT22;9031;50.974;11.330;2023-05-29T10:49:59;27.70;57.90
17815;DHT22;9031;50.974;11.330;2023-05-29T10:52:26;28.80;56.80
17815;DHT22;9031;50.974;11.330;2023-05-29T10:54:54;30.30;53.70
17815;DHT22;9031;50.974;11.330;2023-05-29T10:57:24;29.40;54.20
17815;DHT22;9031;50.974;11.330;2023-05-29T11:00:19;30.00;53.40
17815;DHT22;9031;50.974;11.330;2023-05-29T11:02:48;30.50;52.50
17815;DHT22;9031;50.974;11.330;2023-05-29T11:05:21;30.90;51.40
17815;DHT22;9031;50.974;11.330;2023-05-29T11:07:57;31.40;50.30
17815;DHT22;9031;50.974;11.330;2023-05-29T11:16:11;30.70;48.90
17815;DHT22;9031;50.974;11.330;2023-05-29T11:18:42;30.50;49.60
17815;DHT22;9031;50.974;11.330;2023-05-29T11:23:42;31.10;48.20
17815;DHT22;9031;50.974;11.330;2023-05-29T11:26:09;31.00;47.60
17815;DHT22;9031;50.974;11.330;2023-05-29T11:28:36;31.30;46.00
17815;DHT22;9031;50.974;11.330;2023-05-29T11:31:02;31.00;46.90
17815;DHT22;9031;50.974;11.330;2023-05-29T11:33:38;31.00;45.80
17815;DHT22;9031;50.974;11.330;2023-05-29T11:36:05;32.10;44.90
17815;DHT22;9031;50.974;11.330;2023-05-29T11:38:31;31.50;44.50
17815;DHT22;9031;50.974;11.330;2023-05-29T11:40:57;32.10;44.00
17815;DHT22;9031;50.974;11.330;2023-05-29T11:43:26;31.70;44.20
17815;DHT22;9031;50.974;11.330;2023-05-29T11:45:51;32.40;43.80
17815;DHT22;9031;50.974;11.330;2023-05-29T11:48:17;32.60;42.40
17815;DHT22;9031;50.974;11.330;2023-05-29T11:50:42;32.60;42.80
17815;DHT22;9031;50.974;11.330;2023-05-29T11:53:09;32.60;42.40
17815;DHT22;9031;50.974;11.330;2023-05-29T11:55:34;33.10;42.40
17815;DHT22;9031;50.974;11.330;2023-05-29T11:58:02;33.00;41.50
17815;DHT22;9031;50.974;11.330;2023-05-29T12:00:36;32.70;42.70
17815;DHT22;9031;50.974;11.330;2023-05-29T12:03:02;32.90;42.60
17815;DHT22;9031;50.974;11.330;2023-05-29T12:05:48;33.70;41.40
17815;DHT22;9031;50.974;11.330;2023-05-29T12:08:24;33.40;41.60
17815;DHT22;9031;50.974;11.330;2023-05-29T12:10:52;32.40;42.90
17815;DHT22;9031;50.974;11.330;2023-05-29T12:13:21;30.60;45.90
17815;DHT22;9031;50.974;11.330;2023-05-29T12:15:51;27.60;50.90
17815;DHT22;9031;50.974;11.330;2023-05-29T12:18:18;26.00;54.80
17815;DHT22;9031;50.974;11.330;2023-05-29T12:20:44;25.10;56.70
17815;DHT22;9031;50.974;11.330;2023-05-29T12:23:09;24.70;57.30
17815;DHT22;9031;50.974;11.330;2023-05-29T12:25:37;24.10;58.90
17815;DHT22;9031;50.974;11.330;2023-05-29T12:28:03;24.10;59.60
17815;DHT22;9031;50.974;11.330;2023-05-29T12:30:29;26.20;55.40
17815;DHT22;9031;50.974;11.330;2023-05-29T12:32:55;29.20;50.50
17815;DHT22;9031;50.974;11.330;2023-05-29T12:35:26;29.60;48.30
17815;DHT22;9031;50.974;11.330;2023-05-29T12:38:04;28.90;48.60
17815;DHT22;9031;50.974;11.330;2023-05-29T12:40:34;30.50;46.40
17815;DHT22;9031;50.974;11.330;2023-05-29T12:43:05;31.30;44.90
17815;DHT22;9031;50.974;11.330;2023-05-29T12:45:32;31.40;44.40
17815;DHT22;9031;50.974;11.330;2023-05-29T12:50:40;31.20;45.20
17815;DHT22;9031;50.974;11.330;2023-05-29T12:53:11;31.30;45.00
17815;DHT22;9031;50.974;11.330;2023-05-29T12:55:41;32.20;44.50
17815;DHT22;9031;50.974;11.330;2023-05-29T12:58:08;30.90;44.30
17815;DHT22;9031;50.974;11.330;2023-05-29T13:00:36;30.80;44.40
17815;DHT22;9031;50.974;11.330;2023-05-29T13:03:02;30.80;45.70
17815;DHT22;9031;50.974;11.330;2023-05-29T13:05:28;30.20;45.60
17815;DHT22;9031;50.974;11.330;2023-05-29T13:07:53;28.30;48.10
17815;DHT22;9031;50.974;11.330;2023-05-29T13:10:20;27.60;50.20
17815;DHT22;9031;50.974;11.330;2023-05-29T13:12:46;29.50;48.00
17815;DHT22;9031;50.974;11.330;2023-05-29T13:15:13;30.20;47.10
17815;DHT22;9031;50.974;11.330;2023-05-29T13:17:39;31.60;44.60
17815;DHT22;9031;50.974;11.330;2023-05-29T13:20:10;32.00;43.80
17815;DHT22;9031;50.974;11.330;2023-05-29T13:22:37;31.40;44.10
17815;DHT22;9031;50.974;11.330;2023-05-29T13:25:03;29.40;46.00
17815;DHT22;9031;50.974;11.330;2023-05-29T13:27:29;27.30;49.40
17815;DHT22;9031;50.974;11.330;2023-05-29T13:29:55;26.30;51.50
17815;DHT22;9031;50.974;11.330;2023-05-29T13:32:20;25.60;53.70
17815;DHT22;9031;50.974;11.330;2023-05-29T13:34:46;25.50;53.70
17815;DHT22;9031;50.974;11.330;2023-05-29T13:37:12;25.70;53.50
17815;DHT22;9031;50.974;11.330;2023-05-29T13:39:37;26.60;52.90
17815;DHT22;9031;50.974;11.330;2023-05-29T13:42:03;28.70;49.60
17815;DHT22;9031;50.974;11.330;2023-05-29T13:44:28;29.00;48.40
17815;DHT22;9031;50.974;11.330;2023-05-29T13:46:54;28.30;48.80
17815;DHT22;9031;50.974;11.330;2023-05-29T13:49:19;28.80;48.90
17815;DHT22;9031;50.974;11.330;2023-05-29T13:51:45;28.50;49.50
17815;DHT22;9031;50.974;11.330;2023-05-29T13:54:12;28.60;48.70
17815;DHT22;9031;50.974;11.330;2023-05-29T13:56:38;27.20;50.80
17815;DHT22;9031;50.974;11.330;2023-05-29T13:59:03;26.80;51.20
17815;DHT22;9031;50.974;11.330;2023-05-29T14:01:32;27.80;50.40
17815;DHT22;9031;50.974;11.330;2023-05-29T14:03:59;29.90;47.30
17815;DHT22;9031;50.974;11.330;2023-05-29T14:06:25;29.50;46.50
17815;DHT22;9031;50.974;11.330;2023-05-29T14:08:50;28.90;47.60
17815;DHT22;9031;50.974;11.330;2023-05-29T14:11:16;28.10;48.30
17815;DHT22;9031;50.974;11.330;2023-05-29T14:13:41;28.10;49.10
17815;DHT22;9031;50.974;11.330;2023-05-29T14:16:07;28.10;49.40
17815;DHT22;9031;50.974;11.330;2023-05-29T14:18:32;29.30;48.20
17815;DHT22;9031;50.974;11.330;2023-05-29T14:20:58;29.60;47.50
17815;DHT22;9031;50.974;11.330;2023-05-29T14:23:24;29.80;46.90
17815;DHT22;9031;50.974;11.330;2023-05-29T14:25:49;30.30;45.80
17815;DHT22;9031;50.974;11.330;2023-05-29T14:28:16;28.70;46.90
17815;DHT22;9031;50.974;11.330;2023-05-29T14:30:42;26.20;52.00
17815;DHT22;9031;50.974;11.330;2023-05-29T14:33:08;25.70;53.10
17815;DHT22;9031;50.974;11.330;2023-05-29T14:35:34;25.00;55.00
17815;DHT22;9031;50.974;11.330;2023-05-29T14:37:59;25.40;55.00
17815;DHT22;9031;50.974;11.330;2023-05-29T14:40:25;25.90;53.10
17815;DHT22;9031;50.974;11.330;2023-05-29T14:42:51;25.70;54.00
17815;DHT22;9031;50.974;11.330;2023-05-29T14:45:17;26.40;52.30
17815;DHT22;9031;50.974;11.330;2023-05-29T14:47:42;26.80;51.80
17815;DHT22;9031;50.974;11.330;2023-05-29T14:50:08;27.30;50.50
17815;DHT22;9031;50.974;11.330;2023-05-29T14:52:34;26.70;51.40
17815;DHT22;9031;50.974;11.330;2023-05-29T14:55:03;26.10;52.30
17815;DHT22;9031;50.974;11.330;2023-05-29T14:57:29;26.00;53.10
17815;DHT22;9031;50.974;11.330;2023-05-29T14:59:58;25.80;53.10
17815;DHT22;9031;50.974;11.330;2023-05-29T15:02:23;25.20;54.50
17815;DHT22;9031;50.974;11.330;2023-05-29T15:04:48;25.00;55.30
17815;DHT22;9031;50.974;11.330;2023-05-29T15:07:14;25.00;55.70
17815;DHT22;9031;50.974;11.330;2023-05-29T15:09:39;24.80;56.40
17815;DHT22;9031;50.974;11.330;2023-05-29T15:12:06;24.30;57.20
17815;DHT22;9031;50.974;11.330;2023-05-29T15:14:32;24.70;56.80
17815;DHT22;9031;50.974;11.330;2023-05-29T15:16:57;25.00;56.40
17815;DHT22;9031;50.974;11.330;2023-05-29T15:19:23;25.70;53.80
17815;DHT22;9031;50.974;11.330;2023-05-29T15:21:49;25.80;53.40
17815;DHT22;9031;50.974;11.330;2023-05-29T15:24:14;25.20;55.50
17815;DHT22;9031;50.974;11.330;2023-05-29T15:26:40;25.40;54.70
17815;DHT22;9031;50.974;11.330;2023-05-29T15:29:05;24.80;55.80
17815;DHT22;9031;50.974;11.330;2023-05-29T15:31:31;24.50;56.60
17815;DHT22;9031;50.974;11.330;2023-05-29T15:33:56;24.90;56.20
17815;DHT22;9031;50.974;11.330;2023-05-29T15:36:22;25.20;55.70
17815;DHT22;9031;50.974;11.330;2023-05-29T15:38:47;26.00;54.30
17815;DHT22;9031;50.974;11.330;2023-05-29T15:41:13;26.70;52.40
17815;DHT22;9031;50.974;11.330;2023-05-29T15:43:40;27.10;51.60
17815;DHT22;9031;50.974;11.330;2023-05-29T15:46:06;27.50;50.60
17815;DHT22;9031;50.974;11.330;2023-05-29T15:48:31;27.80;50.20
17815;DHT22;9031;50.974;11.330;2023-05-29T15:50:57;28.00;49.30
17815;DHT22;9031;50.974;11.330;2023-05-29T15:53:22;27.80;49.50
17815;DHT22;9031;50.974;11.330;2023-05-29T15:55:48;27.80;49.10